Flight Track Log - Related Links

Times and Time Zones

All times are in EDT time to prevent confusion due to time zone crossing. See the OPT732 flight status page for this flight to view local times or setup timezone preferences in your user account.


Time Position Orientation Groundspeed Altitude Reporting Facility
EDT Latitude Longitude Course Direction KTS MPH feet Rate Location/Type
Thu 04:34:07 PM 38.0914 -85.7419 264° West 263 303 43,000  Level Indianapolis Center
Thu 04:35:09 PM 38.0758 -85.8231 256° West 272 313 9,500 -15,290 Descending Indianapolis Center
Thu 04:36:11 PM 38.0728 -85.9372 268° West 325 374 11,400 2,081 Climbing Indianapolis Center
Thu 04:37:13 PM 38.0664 -86.0583 266° West 340 391 13,800 1,258 Climbing Indianapolis Center
Thu 04:38:15 PM 38.0575 -86.1897 265° West 368 423 14,000 435 Climbing Indianapolis Center
Thu 04:39:00 PM 38.0441 -86.3219 264° West  Level FlightAware Approximate
Thu 04:39:17 PM 38.0500 -86.3256 266° West 381 438 14,700  Level Indianapolis Center
Thu 04:42:00 PM 38.0246 -86.5732 263° West  Level FlightAware Approximate
Thu 04:44:19 PM 37.9933 -87.0100 263° West 414 476 26,300  Level Kansas City Center
Thu 04:46:00 PM 37.9735 -87.2123 264° West  Level FlightAware Approximate
Thu 04:46:31 PM 37.9644 -87.3553 257° West 444 511 30,600  Level Indianapolis Center
Thu 04:47:34 PM 37.9500 -87.5189 264° West 459 528 31,700 672 Climbing Indianapolis Center
Thu 04:48:36 PM 37.9333 -87.6933 263° West 488 562 32,000 157 Climbing Indianapolis Center
Thu 04:49:00 PM 37.9370 -87.5270 263° West  Level FlightAware Approximate
Thu 04:49:29 PM 37.9164 -87.8758 263° West 510 587 32,000  Level Kansas City Center
Thu 04:50:31 PM 37.8994 -88.0581 263° West 517 595 32,100 1,016 Climbing Kansas City Center
Thu 04:51:33 PM 37.8831 -88.2350 263° West 510 587 34,100 1,935 Climbing Kansas City Center
Thu 04:52:35 PM 37.8658 -88.4042 263° West 492 566 36,100 1,935 Climbing Kansas City Center
Thu 04:53:00 PM 37.8595 -88.1600 258° West  Level FlightAware Approximate
Thu 04:53:37 PM 37.8508 -88.5714 264° West 480 552 38,100  Level Kansas City Center
Thu 04:54:00 PM 37.8317 -88.2924 257° West  Level FlightAware Approximate
Thu 04:54:39 PM 37.8375 -88.7475 265° West 470 541 40,000  Level Kansas City Center
Thu 04:55:41 PM 37.8244 -88.9133 264° West 472 543 40,000  Level Kansas City Center
Thu 04:56:43 PM 37.8308 -89.1083 272° West 501 577 40,000  Level Kansas City Center
Thu 04:57:45 PM 37.8433 -89.2889 275° West 480 552 40,000  Level Kansas City Center
Thu 04:58:47 PM 37.8278 -89.4514 263° West 471 542 40,000  Level Kansas City Center
Thu 04:59:49 PM 37.8103 -89.6172 262° West 474 545 40,000  Level Kansas City Center
Thu 05:00:51 PM 37.7925 -89.7817 262° West 473 544 40,000  Level Kansas City Center
Thu 05:01:53 PM 37.7747 -89.9458 262° West 471 542 40,000  Level Kansas City Center
Thu 05:02:55 PM 37.7561 -90.1075 262° West 468 539 40,000  Level Kansas City Center
Thu 05:03:57 PM 37.7383 -90.2653 262° West 460 529 40,000  Level Kansas City Center
Thu 05:04:59 PM 37.7214 -90.4236 262° West 456 525 40,000  Level Kansas City Center
Thu 05:06:01 PM 37.6986 -90.6108 261° West 452 520 40,000  Level Kansas City Center
Thu 05:07:03 PM 37.6803 -90.7678 262° West 451 519 40,000  Level Kansas City Center
Thu 05:08:05 PM 37.6628 -90.9219 262° West 447 514 40,000  Level Kansas City Center
Thu 05:09:07 PM 37.6433 -91.0864 262° West 448 516 40,000  Level Kansas City Center
Thu 05:10:09 PM 37.6239 -91.2403 261° West 445 512 40,000  Level Kansas City Center
Thu 05:11:11 PM 37.6056 -91.3936 261° West 442 509 40,000  Level Kansas City Center
Thu 05:12:13 PM 37.5875 -91.5467 262° West 440 506 40,000  Level Kansas City Center
Thu 05:13:15 PM 37.5689 -91.6992 261° West 439 505 40,000  Level Kansas City Center
Thu 05:14:18 PM 37.5461 -91.8822 261° West 438 504 40,000  Level Kansas City Center
Thu 05:15:20 PM 37.5275 -92.0342 261° West 436 502 40,000  Level Kansas City Center
Thu 05:16:22 PM 37.5081 -92.1869 261° West 436 502 40,000  Level Kansas City Center
Thu 05:17:24 PM 37.4889 -92.3397 261° West 437 503 40,000  Level Kansas City Center
Thu 05:18:26 PM 37.4689 -92.4919 261° West 435 501 40,000  Level Kansas City Center
Thu 05:19:28 PM 37.4494 -92.6431 261° West 435 501 40,000  Level Kansas City Center
Thu 05:20:30 PM 37.4300 -92.7939 261° West 434 499 40,000  Level Kansas City Center
Thu 05:21:32 PM 37.4092 -92.9433 260° West 432 497 40,000 -581 Level Kansas City Center
Thu 05:22:34 PM 37.3892 -93.0939 261° West 433 498 38,800 -1,355 Descending Kansas City Center
Thu 05:23:36 PM 37.3647 -93.2647 260° West 421 484 37,200 -1,355 Descending Kansas City Center
Thu 05:24:38 PM 37.3342 -93.4028 254° West 417 480 36,000 -581 Descending Kansas City Center
Thu 05:25:40 PM 37.2889 -93.5503 249° West 443 510 36,000 -435 Level Kansas City Center
Thu 05:26:42 PM 37.2417 -93.7047 249° West 466 536 35,100 -1,258 Descending Kansas City Center
Thu 05:27:44 PM 37.1964 -93.8522 249° West 457 526 33,400 -1,887 Descending Kansas City Center
Thu 05:28:46 PM 37.1483 -93.9997 248° West 455 524 31,200 -2,274 Descending Kansas City Center
Thu 05:29:48 PM 37.0944 -94.1692 248° West 471 542 28,700 -2,323 Descending Kansas City Center
Thu 05:30:50 PM 37.0461 -94.3211 248° West 470 541 26,400 -2,177 Descending Kansas City Center
Thu 05:31:52 PM 37.0031 -94.4611 249° West 441 507 24,200 -2,081 Descending Kansas City Center
Thu 05:32:54 PM 36.9592 -94.5961 248° West 424 488 22,100 -2,226 Descending Kansas City Center
Thu 05:33:56 PM 36.9069 -94.7572 248° West 418 481 19,600 -2,081 Descending Kansas City Center
Thu 05:34:58 PM 36.8650 -94.8919 249° West 418 481 17,800 -1,887 Descending Kansas City Center
Thu 05:36:00 PM 36.8258 -95.0114 248° West 389 448 15,700 -1,984 Descending Kansas City Center
Thu 05:37:02 PM 36.7658 -95.1044 231° Southwest 359 413 13,700 -2,032 Descending Kansas City Center
Thu 05:38:04 PM 36.6942 -95.1883 223° Southwest 350 403 11,500 -1,790 Descending Kansas City Center
Thu 05:39:06 PM 36.6258 -95.2717 224° Southwest 346 398 10,000 -726 Descending Kansas City Center
Thu 05:40:08 PM 36.5581 -95.3539 224° Southwest 290 334 10,000  Level Kansas City Center
Thu 05:40:54 PM 36.5197 -95.3997 224° Southwest 254 292 10,000  Level Kansas City Center
Thu 05:41:10 PM 36.5067 -95.4164 226° Southwest 266 306 10,000  Level Kansas City Center
Thu 05:42:12 PM 36.4556 -95.4772 224° Southwest 260 299 10,000 -441 Level Kansas City Center
Thu 05:43:26 PM 36.3797 -95.5461 216° Southwest 267 307 9,000 -484 Descending Kansas City Center
Thu 05:44:16 PM 36.3256 -95.5794 206° Southwest 254 292 9,000 -1,009 Level Kansas City Center
Thu 05:45:19 PM 36.2650 -95.6167 206° Southwest 245 282 7,100 -960 Descending Kansas City Center
Thu 05:46:21 PM 36.2036 -95.6522 205° Southwest 244 281 7,000 -585 Descending Kansas City Center
Thu 05:47:22 PM 36.1364 -95.6925 206° Southwest 252 290 5,900 -1,377 Descending Kansas City Center
Thu 05:48:23 PM 36.0747 -95.7317 207° Southwest 251 289 4,200 -1,152 Descending Kansas City Center
Thu 05:49:27 PM 36.0167 -95.7681 207° Southwest 251 289 3,500 -333 Descending Kansas City Center
Thu 05:50:29 PM 35.9828 -95.8183 230° Southwest 219 252 3,500  Level Kansas City Center
Thu 05:51:24 PM 35.9875 -95.8878 275° West 175 201 3,500 -532 Level Kansas City Center
Thu 05:52:33 PM 36.0311 -95.9119 336° Northwest 176 203 2,400 -504 Descending Kansas City Center
Thu 05:53:35 PM 36.0644 -95.9072 North 145 167 2,400  Level Kansas City Center
Thu 05:54:37 PM 36.0947 -95.9058 North 124 143 2,400 -484 Level Kansas City Center
Thu 05:55:39 PM 36.1256 -95.9039 North 115 132 1,400 -634 Descending Kansas City Center
Thu 05:56:40 PM 36.1672 -95.9033 North 140 161 1,100 -339 Descending Kansas City Center
Thu 05:57:43 PM 36.1992 -95.8989 North 124 143 700 -381 Descending Kansas City Center

Login

Don't have an account? Register now (free) for customized features, flight alerts, and more!